sensor_id;sensor_type;location;lat;lon;timestamp;pressure;altitude;pressure_sealevel;temperature;humidity
62436;BME280;48480;50.252;18.848;2023-05-09T00:00:43;99699.91;;;6.58;63.37
62436;BME280;48480;50.252;18.848;2023-05-09T00:03:27;99696.26;;;6.53;63.45
62436;BME280;48480;50.252;18.848;2023-05-09T00:06:12;99695.02;;;6.50;63.57
62436;BME280;48480;50.252;18.848;2023-05-09T00:08:56;99695.66;;;6.52;63.64
62436;BME280;48480;50.252;18.848;2023-05-09T00:11:39;99694.11;;;6.54;63.61
62436;BME280;48480;50.252;18.848;2023-05-09T00:14:23;99692.63;;;6.51;63.58
62436;BME280;48480;50.252;18.848;2023-05-09T00:17:08;99688.39;;;6.49;63.65
62436;BME280;48480;50.252;18.848;2023-05-09T00:19:52;99691.02;;;6.50;63.76
62436;BME280;48480;50.252;18.848;2023-05-09T00:22:38;99689.75;;;6.52;63.65
62436;BME280;48480;50.252;18.848;2023-05-09T00:25:23;99684.57;;;6.51;63.67
62436;BME280;48480;50.252;18.848;2023-05-09T00:28:07;99678.74;;;6.48;63.70
62436;BME280;48480;50.252;18.848;2023-05-09T00:30:51;99676.15;;;6.45;63.79
62436;BME280;48480;50.252;18.848;2023-05-09T00:33:35;99676.71;;;6.39;63.98
62436;BME280;48480;50.252;18.848;2023-05-09T00:36:19;99678.61;;;6.34;64.20
62436;BME280;48480;50.252;18.848;2023-05-09T00:39:02;99675.48;;;6.30;64.25
62436;BME280;48480;50.252;18.848;2023-05-09T00:41:48;99678.04;;;6.27;64.31
62436;BME280;48480;50.252;18.848;2023-05-09T00:44:32;99673.48;;;6.24;64.36
62436;BME280;48480;50.252;18.848;2023-05-09T00:47:16;99671.17;;;6.22;64.55
62436;BME280;48480;50.252;18.848;2023-05-09T00:50:01;99665.30;;;6.20;64.69
62436;BME280;48480;50.252;18.848;2023-05-09T00:52:45;99660.30;;;6.14;64.79
62436;BME280;48480;50.252;18.848;2023-05-09T00:55:29;99660.11;;;6.09;64.96
62436;BME280;48480;50.252;18.848;2023-05-09T00:58:14;99657.40;;;6.02;65.23
62436;BME280;48480;50.252;18.848;2023-05-09T01:00:58;99660.22;;;6.01;65.30
62436;BME280;48480;50.252;18.848;2023-05-09T01:03:44;99654.44;;;5.93;65.54
62436;BME280;48480;50.252;18.848;2023-05-09T01:06:32;99657.02;;;5.84;65.89
62436;BME280;48480;50.252;18.848;2023-05-09T01:09:41;99651.23;;;5.71;66.11
62436;BME280;48480;50.252;18.848;2023-05-09T01:12:34;99658.36;;;5.71;66.18
62436;BME280;48480;50.252;18.848;2023-05-09T01:15:43;99657.73;;;5.66;66.39
62436;BME280;48480;50.252;18.848;2023-05-09T01:18:38;99652.04;;;5.66;66.44
62436;BME280;48480;50.252;18.848;2023-05-09T01:21:27;99648.83;;;5.65;66.55
62436;BME280;48480;50.252;18.848;2023-05-09T01:24:33;99648.56;;;5.59;66.65
62436;BME280;48480;50.252;18.848;2023-05-09T01:30:34;99644.94;;;5.52;66.97
62436;BME280;48480;50.252;18.848;2023-05-09T01:33:22;99643.85;;;5.50;67.03
62436;BME280;48480;50.252;18.848;2023-05-09T01:36:11;99644.23;;;5.52;67.13
62436;BME280;48480;50.252;18.848;2023-05-09T01:38:58;99642.22;;;5.52;67.14
62436;BME280;48480;50.252;18.848;2023-05-09T01:41:42;99641.23;;;5.51;67.21
62436;BME280;48480;50.252;18.848;2023-05-09T01:44:31;99641.29;;;5.50;67.24
62436;BME280;48480;50.252;18.848;2023-05-09T01:47:17;99637.99;;;5.51;67.27
62436;BME280;48480;50.252;18.848;2023-05-09T01:50:03;99636.77;;;5.51;67.46
62436;BME280;48480;50.252;18.848;2023-05-09T01:52:52;99638.52;;;5.44;67.57
62436;BME280;48480;50.252;18.848;2023-05-09T01:55:36;99638.09;;;5.38;67.72
62436;BME280;48480;50.252;18.848;2023-05-09T01:58:22;99635.73;;;5.29;67.96
62436;BME280;48480;50.252;18.848;2023-05-09T02:01:08;99638.56;;;5.21;68.14
62436;BME280;48480;50.252;18.848;2023-05-09T02:03:54;99635.20;;;5.15;68.34
62436;BME280;48480;50.252;18.848;2023-05-09T02:06:40;99631.23;;;5.11;68.53
62436;BME280;48480;50.252;18.848;2023-05-09T02:09:25;99629.80;;;5.11;68.56
62436;BME280;48480;50.252;18.848;2023-05-09T02:12:09;99628.59;;;5.11;68.64
62436;BME280;48480;50.252;18.848;2023-05-09T02:14:53;99628.36;;;5.11;68.67
62436;BME280;48480;50.252;18.848;2023-05-09T02:17:37;99626.02;;;5.16;68.52
62436;BME280;48480;50.252;18.848;2023-05-09T02:20:21;99623.84;;;5.15;68.57
62436;BME280;48480;50.252;18.848;2023-05-09T02:23:05;99623.42;;;5.17;68.64
62436;BME280;48480;50.252;18.848;2023-05-09T02:25:49;99623.84;;;5.16;68.61
62436;BME280;48480;50.252;18.848;2023-05-09T02:28:33;99624.02;;;5.14;68.60
62436;BME280;48480;50.252;18.848;2023-05-09T02:31:19;99622.11;;;5.13;68.61
62436;BME280;48480;50.252;18.848;2023-05-09T02:34:06;99616.77;;;5.07;68.77
62436;BME280;48480;50.252;18.848;2023-05-09T02:36:51;99615.05;;;4.99;68.98
62436;BME280;48480;50.252;18.848;2023-05-09T02:39:35;99616.42;;;4.94;69.18
62436;BME280;48480;50.252;18.848;2023-05-09T02:42:26;99614.98;;;4.92;69.26
62436;BME280;48480;50.252;18.848;2023-05-09T02:45:11;99616.31;;;4.93;69.33
62436;BME280;48480;50.252;18.848;2023-05-09T02:47:55;99614.55;;;4.91;69.50
62436;BME280;48480;50.252;18.848;2023-05-09T02:50:39;99612.92;;;4.90;69.56
62436;BME280;48480;50.252;18.848;2023-05-09T02:53:25;99612.00;;;4.88;69.58
62436;BME280;48480;50.252;18.848;2023-05-09T02:56:09;99612.61;;;4.85;69.72
62436;BME280;48480;50.252;18.848;2023-05-09T02:58:53;99614.52;;;4.83;70.04
62436;BME280;48480;50.252;18.848;2023-05-09T03:01:37;99613.76;;;4.78;70.11
62436;BME280;48480;50.252;18.848;2023-05-09T03:04:22;99617.86;;;4.75;70.26
62436;BME280;48480;50.252;18.848;2023-05-09T03:07:08;99617.77;;;4.72;70.43
62436;BME280;48480;50.252;18.848;2023-05-09T03:09:52;99614.61;;;4.68;70.59
62436;BME280;48480;50.252;18.848;2023-05-09T03:12:36;99616.48;;;4.65;70.76
62436;BME280;48480;50.252;18.848;2023-05-09T03:15:21;99613.97;;;4.64;70.84
62436;BME280;48480;50.252;18.848;2023-05-09T03:18:05;99614.13;;;4.64;70.89
62436;BME280;48480;50.252;18.848;2023-05-09T03:20:49;99618.94;;;4.62;70.97
62436;BME280;48480;50.252;18.848;2023-05-09T03:23:33;99615.83;;;4.59;71.19
62436;BME280;48480;50.252;18.848;2023-05-09T03:26:17;99616.51;;;4.59;71.29
62436;BME280;48480;50.252;18.848;2023-05-09T03:29:02;99615.80;;;4.58;71.28
62436;BME280;48480;50.252;18.848;2023-05-09T03:31:46;99620.74;;;4.62;71.35
62436;BME280;48480;50.252;18.848;2023-05-09T03:34:30;99619.13;;;4.70;71.29
62436;BME280;48480;50.252;18.848;2023-05-09T03:37:14;99620.98;;;4.74;71.44
62436;BME280;48480;50.252;18.848;2023-05-09T03:39:58;99614.59;;;4.72;71.63
62436;BME280;48480;50.252;18.848;2023-05-09T03:42:42;99608.73;;;4.71;71.69
62436;BME280;48480;50.252;18.848;2023-05-09T03:45:26;99604.20;;;4.75;71.65
62436;BME280;48480;50.252;18.848;2023-05-09T03:48:10;99610.39;;;4.77;71.65
62436;BME280;48480;50.252;18.848;2023-05-09T03:50:55;99613.67;;;4.79;71.62
62436;BME280;48480;50.252;18.848;2023-05-09T03:53:38;99615.48;;;4.85;71.58
62436;BME280;48480;50.252;18.848;2023-05-09T03:56:23;99616.64;;;4.88;71.55
62436;BME280;48480;50.252;18.848;2023-05-09T03:59:06;99615.30;;;4.88;71.67
62436;BME280;48480;50.252;18.848;2023-05-09T04:01:50;99613.48;;;4.91;71.71
62436;BME280;48480;50.252;18.848;2023-05-09T04:04:35;99620.27;;;4.90;71.86
62436;BME280;48480;50.252;18.848;2023-05-09T04:07:19;99615.46;;;4.88;71.97
62436;BME280;48480;50.252;18.848;2023-05-09T04:10:03;99617.77;;;4.93;71.87
62436;BME280;48480;50.252;18.848;2023-05-09T04:12:48;99619.06;;;4.98;71.85
62436;BME280;48480;50.252;18.848;2023-05-09T04:15:31;99620.80;;;5.00;71.86
62436;BME280;48480;50.252;18.848;2023-05-09T04:18:15;99620.15;;;5.04;71.91
62436;BME280;48480;50.252;18.848;2023-05-09T04:20:59;99622.45;;;5.10;71.93
62436;BME280;48480;50.252;18.848;2023-05-09T04:23:44;99620.37;;;5.16;71.91
62436;BME280;48480;50.252;18.848;2023-05-09T04:26:27;99622.65;;;5.26;71.86
62436;BME280;48480;50.252;18.848;2023-05-09T04:29:12;99621.60;;;5.37;71.70
62436;BME280;48480;50.252;18.848;2023-05-09T04:31:56;99615.23;;;5.46;71.57
62436;BME280;48480;50.252;18.848;2023-05-09T04:34:40;99612.17;;;5.56;71.50
62436;BME280;48480;50.252;18.848;2023-05-09T04:37:24;99609.27;;;5.65;71.45
62436;BME280;48480;50.252;18.848;2023-05-09T04:40:09;99602.60;;;5.71;71.38
62436;BME280;48480;50.252;18.848;2023-05-09T04:42:53;99594.05;;;5.73;71.36
62436;BME280;48480;50.252;18.848;2023-05-09T04:45:37;99591.78;;;5.83;71.23
62436;BME280;48480;50.252;18.848;2023-05-09T04:48:20;99596.37;;;5.99;71.03
62436;BME280;48480;50.252;18.848;2023-05-09T04:51:04;99596.48;;;6.08;70.79
62436;BME280;48480;50.252;18.848;2023-05-09T04:53:48;99592.53;;;6.16;70.58
62436;BME280;48480;50.252;18.848;2023-05-09T04:56:32;99596.06;;;6.26;70.51
62436;BME280;48480;50.252;18.848;2023-05-09T04:59:16;99597.39;;;6.37;70.21
62436;BME280;48480;50.252;18.848;2023-05-09T05:02:00;99599.36;;;6.47;69.93
62436;BME280;48480;50.252;18.848;2023-05-09T05:04:45;99594.65;;;6.56;69.68
62436;BME280;48480;50.252;18.848;2023-05-09T05:07:29;99592.60;;;6.65;69.41
62436;BME280;48480;50.252;18.848;2023-05-09T05:10:13;99585.90;;;6.72;69.32
62436;BME280;48480;50.252;18.848;2023-05-09T05:12:57;99583.92;;;6.87;69.18
62436;BME280;48480;50.252;18.848;2023-05-09T05:15:41;99595.66;;;7.05;68.55
62436;BME280;48480;50.252;18.848;2023-05-09T05:18:25;99593.71;;;7.23;68.02
62436;BME280;48480;50.252;18.848;2023-05-09T05:21:09;99589.61;;;7.44;67.54
62436;BME280;48480;50.252;18.848;2023-05-09T05:23:53;99587.14;;;7.74;66.62
62436;BME280;48480;50.252;18.848;2023-05-09T05:26:37;99586.70;;;8.89;64.03
62436;BME280;48480;50.252;18.848;2023-05-09T05:29:21;99588.34;;;10.16;61.16
62436;BME280;48480;50.252;18.848;2023-05-09T05:32:04;99589.29;;;11.24;58.87
62436;BME280;48480;50.252;18.848;2023-05-09T05:34:48;99593.37;;;12.22;56.26
62436;BME280;48480;50.252;18.848;2023-05-09T05:37:33;99591.45;;;13.13;54.37
62436;BME280;48480;50.252;18.848;2023-05-09T05:40:18;99594.19;;;13.99;52.58
62436;BME280;48480;50.252;18.848;2023-05-09T05:43:01;99591.77;;;14.72;50.49
62436;BME280;48480;50.252;18.848;2023-05-09T05:45:45;99585.59;;;15.28;48.10
62436;BME280;48480;50.252;18.848;2023-05-09T05:48:29;99581.44;;;15.79;47.64
62436;BME280;48480;50.252;18.848;2023-05-09T05:51:13;99585.87;;;16.23;45.35
62436;BME280;48480;50.252;18.848;2023-05-09T05:53:58;99581.23;;;16.36;44.03
62436;BME280;48480;50.252;18.848;2023-05-09T05:56:41;99582.13;;;16.32;42.78
62436;BME280;48480;50.252;18.848;2023-05-09T05:59:25;99578.50;;;16.19;42.65
62436;BME280;48480;50.252;18.848;2023-05-09T06:02:09;99571.26;;;15.96;42.73
62436;BME280;48480;50.252;18.848;2023-05-09T06:04:53;99571.00;;;15.90;43.14
62436;BME280;48480;50.252;18.848;2023-05-09T06:07:37;99574.50;;;16.06;42.73
62436;BME280;48480;50.252;18.848;2023-05-09T06:10:23;99568.27;;;16.14;42.49
62436;BME280;48480;50.252;18.848;2023-05-09T06:13:07;99568.52;;;16.26;42.27
62436;BME280;48480;50.252;18.848;2023-05-09T06:15:54;99565.83;;;16.50;41.85
62436;BME280;48480;50.252;18.848;2023-05-09T06:18:38;99567.89;;;16.68;41.18
62436;BME280;48480;50.252;18.848;2023-05-09T06:21:22;99573.80;;;16.78;40.17
62436;BME280;48480;50.252;18.848;2023-05-09T06:24:06;99565.56;;;16.56;40.69
62436;BME280;48480;50.252;18.848;2023-05-09T06:26:51;99560.88;;;16.89;40.80
62436;BME280;48480;50.252;18.848;2023-05-09T06:29:34;99551.41;;;17.24;39.95
62436;BME280;48480;50.252;18.848;2023-05-09T06:32:18;99555.15;;;17.59;39.56
62436;BME280;48480;50.252;18.848;2023-05-09T06:35:03;99554.29;;;17.63;37.79
62436;BME280;48480;50.252;18.848;2023-05-09T06:37:48;99557.17;;;17.04;37.61
62436;BME280;48480;50.252;18.848;2023-05-09T06:40:32;99551.04;;;16.34;38.79
62436;BME280;48480;50.252;18.848;2023-05-09T06:43:16;99551.76;;;16.09;39.22
62436;BME280;48480;50.252;18.848;2023-05-09T06:46:00;99554.17;;;15.92;39.29
62436;BME280;48480;50.252;18.848;2023-05-09T06:48:44;99544.02;;;15.71;39.66
62436;BME280;48480;50.252;18.848;2023-05-09T06:51:28;99543.13;;;15.59;39.78
62436;BME280;48480;50.252;18.848;2023-05-09T06:54:12;99532.24;;;15.67;39.77
62436;BME280;48480;50.252;18.848;2023-05-09T06:56:56;99532.61;;;15.89;39.34
62436;BME280;48480;50.252;18.848;2023-05-09T06:59:40;99532.14;;;16.10;39.32
62436;BME280;48480;50.252;18.848;2023-05-09T07:02:24;99529.99;;;16.26;38.51
62436;BME280;48480;50.252;18.848;2023-05-09T07:05:08;99530.45;;;16.30;38.40
62436;BME280;48480;50.252;18.848;2023-05-09T07:07:52;99523.31;;;16.56;37.92
62436;BME280;48480;50.252;18.848;2023-05-09T07:10:38;99524.67;;;16.63;38.03
62436;BME280;48480;50.252;18.848;2023-05-09T07:13:22;99528.45;;;16.77;36.80
62436;BME280;48480;50.252;18.848;2023-05-09T07:16:06;99521.31;;;16.72;37.23
62436;BME280;48480;50.252;18.848;2023-05-09T07:18:50;99520.75;;;16.86;37.13
62436;BME280;48480;50.252;18.848;2023-05-09T07:21:34;99515.04;;;16.93;36.47
62436;BME280;48480;50.252;18.848;2023-05-09T07:24:18;99511.77;;;16.92;36.62
62436;BME280;48480;50.252;18.848;2023-05-09T07:27:03;99511.48;;;17.06;36.27
62436;BME280;48480;50.252;18.848;2023-05-09T07:29:46;99508.39;;;17.15;36.08
62436;BME280;48480;50.252;18.848;2023-05-09T07:32:32;99502.45;;;17.34;36.14
62436;BME280;48480;50.252;18.848;2023-05-09T07:35:17;99508.33;;;17.51;35.77
62436;BME280;48480;50.252;18.848;2023-05-09T07:38:01;99501.27;;;17.65;35.53
62436;BME280;48480;50.252;18.848;2023-05-09T07:40:45;99502.41;;;17.48;35.11
62436;BME280;48480;50.252;18.848;2023-05-09T07:43:29;99505.66;;;17.18;35.40
62436;BME280;48480;50.252;18.848;2023-05-09T07:46:13;99501.09;;;17.21;35.58
62436;BME280;48480;50.252;18.848;2023-05-09T07:48:56;99495.92;;;17.33;35.60
62436;BME280;48480;50.252;18.848;2023-05-09T07:51:41;99490.45;;;17.50;35.27
62436;BME280;48480;50.252;18.848;2023-05-09T07:54:24;99494.34;;;17.74;35.31
62436;BME280;48480;50.252;18.848;2023-05-09T07:57:08;99490.04;;;17.91;34.78
62436;BME280;48480;50.252;18.848;2023-05-09T07:59:53;99486.81;;;17.94;34.61
62436;BME280;48480;50.252;18.848;2023-05-09T08:02:37;99489.20;;;17.94;34.43
62436;BME280;48480;50.252;18.848;2023-05-09T08:05:21;99481.77;;;17.76;34.13
62436;BME280;48480;50.252;18.848;2023-05-09T08:08:05;99476.85;;;17.49;34.51
62436;BME280;48480;50.252;18.848;2023-05-09T08:10:50;99483.34;;;17.51;34.95
62436;BME280;48480;50.252;18.848;2023-05-09T08:13:35;99479.36;;;17.64;34.51
62436;BME280;48480;50.252;18.848;2023-05-09T08:16:19;99474.02;;;17.62;34.29
62436;BME280;48480;50.252;18.848;2023-05-09T08:19:02;99466.99;;;17.70;34.73
62436;BME280;48480;50.252;18.848;2023-05-09T08:21:46;99464.11;;;17.91;34.41
62436;BME280;48480;50.252;18.848;2023-05-09T08:24:30;99454.23;;;17.99;33.50
62436;BME280;48480;50.252;18.848;2023-05-09T08:27:15;99457.33;;;17.99;33.95
62436;BME280;48480;50.252;18.848;2023-05-09T08:29:59;99459.23;;;18.29;33.95
62436;BME280;48480;50.252;18.848;2023-05-09T08:32:44;99468.34;;;18.51;32.82
62436;BME280;48480;50.252;18.848;2023-05-09T08:35:28;99462.13;;;18.45;33.11
62436;BME280;48480;50.252;18.848;2023-05-09T08:38:12;99455.73;;;18.60;32.30
62436;BME280;48480;50.252;18.848;2023-05-09T08:40:59;99455.79;;;18.57;31.85
62436;BME280;48480;50.252;18.848;2023-05-09T08:43:44;99449.66;;;18.41;31.95
62436;BME280;48480;50.252;18.848;2023-05-09T08:46:33;99448.73;;;18.27;32.46
62436;BME280;48480;50.252;18.848;2023-05-09T08:49:19;99448.52;;;18.33;32.56
62436;BME280;48480;50.252;18.848;2023-05-09T08:52:04;99450.02;;;18.45;32.72
62436;BME280;48480;50.252;18.848;2023-05-09T08:54:48;99471.70;;;18.52;31.97
62436;BME280;48480;50.252;18.848;2023-05-09T08:57:33;99444.23;;;18.36;32.24
62436;BME280;48480;50.252;18.848;2023-05-09T09:00:21;99445.81;;;18.37;32.59
62436;BME280;48480;50.252;18.848;2023-05-09T09:03:07;99443.55;;;18.41;32.82
62436;BME280;48480;50.252;18.848;2023-05-09T09:05:52;99436.14;;;18.67;33.24
62436;BME280;48480;50.252;18.848;2023-05-09T09:08:37;99437.17;;;19.05;32.43
62436;BME280;48480;50.252;18.848;2023-05-09T09:11:23;99439.84;;;19.08;31.93
62436;BME280;48480;50.252;18.848;2023-05-09T09:14:11;99453.05;;;18.94;32.42
62436;BME280;48480;50.252;18.848;2023-05-09T09:16:59;99447.28;;;18.91;32.43
62436;BME280;48480;50.252;18.848;2023-05-09T09:19:47;99446.78;;;18.70;32.49
62436;BME280;48480;50.252;18.848;2023-05-09T09:22:32;99446.61;;;18.59;32.71
62436;BME280;48480;50.252;18.848;2023-05-09T09:25:17;99446.55;;;18.38;32.78
62436;BME280;48480;50.252;18.848;2023-05-09T09:28:00;99442.13;;;18.19;33.28
62436;BME280;48480;50.252;18.848;2023-05-09T09:30:47;99439.13;;;18.26;33.84
62436;BME280;48480;50.252;18.848;2023-05-09T09:33:31;99434.67;;;18.51;33.50
62436;BME280;48480;50.252;18.848;2023-05-09T09:36:15;99433.10;;;18.69;33.65
62436;BME280;48480;50.252;18.848;2023-05-09T09:39:02;99435.98;;;19.04;33.56
62436;BME280;48480;50.252;18.848;2023-05-09T09:41:47;99428.79;;;19.32;32.67
62436;BME280;48480;50.252;18.848;2023-05-09T09:44:31;99436.63;;;19.41;31.92
62436;BME280;48480;50.252;18.848;2023-05-09T09:47:15;99438.47;;;19.40;31.90
62436;BME280;48480;50.252;18.848;2023-05-09T09:50:11;99421.77;;;19.46;31.75
62436;BME280;48480;50.252;18.848;2023-05-09T09:52:56;99411.13;;;19.47;31.68
62436;BME280;48480;50.252;18.848;2023-05-09T09:55:50;99415.39;;;19.37;32.39
62436;BME280;48480;50.252;18.848;2023-05-09T09:58:36;99423.54;;;19.58;32.03
62436;BME280;48480;50.252;18.848;2023-05-09T10:01:20;99422.55;;;19.66;30.98
62436;BME280;48480;50.252;18.848;2023-05-09T10:04:04;99425.15;;;19.55;30.88
62436;BME280;48480;50.252;18.848;2023-05-09T10:07:01;99417.86;;;19.52;30.77
62436;BME280;48480;50.252;18.848;2023-05-09T10:09:48;99417.85;;;19.52;31.11
62436;BME280;48480;50.252;18.848;2023-05-09T10:12:33;99407.31;;;19.60;31.12
62436;BME280;48480;50.252;18.848;2023-05-09T10:15:19;99402.48;;;19.81;30.96
62436;BME280;48480;50.252;18.848;2023-05-09T10:18:05;99402.98;;;19.98;30.49
62436;BME280;48480;50.252;18.848;2023-05-09T10:20:52;99396.55;;;20.09;30.55
62436;BME280;48480;50.252;18.848;2023-05-09T10:23:37;99390.22;;;20.26;30.38
62436;BME280;48480;50.252;18.848;2023-05-09T10:26:25;99397.08;;;20.42;29.72
62436;BME280;48480;50.252;18.848;2023-05-09T10:29:11;99391.30;;;20.22;29.83
62436;BME280;48480;50.252;18.848;2023-05-09T10:31:58;99383.73;;;20.13;30.23
62436;BME280;48480;50.252;18.848;2023-05-09T10:34:46;99381.63;;;20.28;30.04
62436;BME280;48480;50.252;18.848;2023-05-09T10:37:32;99384.57;;;20.28;29.83
62436;BME280;48480;50.252;18.848;2023-05-09T10:40:18;99390.02;;;19.82;30.20
62436;BME280;48480;50.252;18.848;2023-05-09T10:43:03;99372.80;;;19.31;30.27
62436;BME280;48480;50.252;18.848;2023-05-09T10:45:48;99378.75;;;19.29;30.07
62436;BME280;48480;50.252;18.848;2023-05-09T10:48:32;99378.40;;;19.18;30.62
62436;BME280;48480;50.252;18.848;2023-05-09T10:51:17;99378.02;;;19.15;30.58
62436;BME280;48480;50.252;18.848;2023-05-09T10:54:12;99375.41;;;18.83;30.68
62436;BME280;48480;50.252;18.848;2023-05-09T10:56:57;99376.45;;;18.56;31.15
62436;BME280;48480;50.252;18.848;2023-05-09T10:59:42;99373.09;;;18.28;30.90
62436;BME280;48480;50.252;18.848;2023-05-09T11:02:26;99375.41;;;18.01;31.31
62436;BME280;48480;50.252;18.848;2023-05-09T11:05:17;99358.25;;;18.00;31.39
62436;BME280;48480;50.252;18.848;2023-05-09T11:08:21;99359.11;;;18.16;31.42
62436;BME280;48480;50.252;18.848;2023-05-09T11:11:06;99353.77;;;18.45;31.45
62436;BME280;48480;50.252;18.848;2023-05-09T11:13:55;99353.54;;;18.53;30.97
62436;BME280;48480;50.252;18.848;2023-05-09T11:16:56;99344.27;;;18.58;30.99
62436;BME280;48480;50.252;18.848;2023-05-09T11:22:29;99346.79;;;19.03;30.12
62436;BME280;48480;50.252;18.848;2023-05-09T11:25:15;99341.73;;;19.09;29.88
62436;BME280;48480;50.252;18.848;2023-05-09T11:28:00;99340.52;;;19.10;29.49
62436;BME280;48480;50.252;18.848;2023-05-09T11:30:44;99337.29;;;19.05;29.91
62436;BME280;48480;50.252;18.848;2023-05-09T11:33:29;99328.15;;;19.06;29.77
62436;BME280;48480;50.252;18.848;2023-05-09T11:36:17;99331.09;;;19.02;30.21
62436;BME280;48480;50.252;18.848;2023-05-09T11:39:06;99329.70;;;18.85;30.29
62436;BME280;48480;50.252;18.848;2023-05-09T11:41:50;99322.31;;;18.58;30.37
62436;BME280;48480;50.252;18.848;2023-05-09T11:44:35;99316.64;;;18.52;30.34
62436;BME280;48480;50.252;18.848;2023-05-09T11:47:19;99303.77;;;18.44;30.71
62436;BME280;48480;50.252;18.848;2023-05-09T11:50:08;99308.95;;;18.43;30.54
62436;BME280;48480;50.252;18.848;2023-05-09T11:52:53;99301.56;;;18.42;30.70
62436;BME280;48480;50.252;18.848;2023-05-09T11:55:39;99300.70;;;18.51;30.63
62436;BME280;48480;50.252;18.848;2023-05-09T11:58:24;99296.20;;;18.66;30.47
62436;BME280;48480;50.252;18.848;2023-05-09T12:01:10;99298.23;;;18.81;30.36
62436;BME280;48480;50.252;18.848;2023-05-09T12:03:56;99292.77;;;18.82;30.31
62436;BME280;48480;50.252;18.848;2023-05-09T12:06:46;99290.10;;;18.94;30.20
62436;BME280;48480;50.252;18.848;2023-05-09T12:09:34;99283.58;;;19.04;30.53
62436;BME280;48480;50.252;18.848;2023-05-09T12:12:21;99272.66;;;19.29;30.68
62436;BME280;48480;50.252;18.848;2023-05-09T12:15:06;99275.65;;;19.52;30.16
62436;BME280;48480;50.252;18.848;2023-05-09T12:18:04;99271.97;;;19.53;29.69
62436;BME280;48480;50.252;18.848;2023-05-09T12:20:49;99269.20;;;19.34;29.80
62436;BME280;48480;50.252;18.848;2023-05-09T12:23:34;99270.30;;;19.17;29.73
62436;BME280;48480;50.252;18.848;2023-05-09T12:26:20;99263.99;;;19.04;29.64
62436;BME280;48480;50.252;18.848;2023-05-09T12:29:05;99265.20;;;18.90;30.02
62436;BME280;48480;50.252;18.848;2023-05-09T12:31:49;99260.58;;;18.81;30.35
62436;BME280;48480;50.252;18.848;2023-05-09T12:34:34;99263.52;;;18.72;30.13
62436;BME280;48480;50.252;18.848;2023-05-09T12:37:19;99257.75;;;18.65;30.06
62436;BME280;48480;50.252;18.848;2023-05-09T12:40:09;99258.35;;;18.58;30.02
62436;BME280;48480;50.252;18.848;2023-05-09T12:42:57;99246.64;;;18.40;30.51
62436;BME280;48480;50.252;18.848;2023-05-09T12:45:43;99241.27;;;18.31;31.01
62436;BME280;48480;50.252;18.848;2023-05-09T12:48:28;99243.54;;;18.26;31.06
62436;BME280;48480;50.252;18.848;2023-05-09T12:51:20;99238.84;;;18.24;31.09
62436;BME280;48480;50.252;18.848;2023-05-09T12:54:05;99234.13;;;18.27;30.79
62436;BME280;48480;50.252;18.848;2023-05-09T12:56:54;99229.70;;;18.30;30.55
62436;BME280;48480;50.252;18.848;2023-05-09T12:59:42;99222.94;;;18.33;30.32
62436;BME280;48480;50.252;18.848;2023-05-09T13:02:26;99216.04;;;18.40;30.43
62436;BME280;48480;50.252;18.848;2023-05-09T13:05:12;99223.27;;;18.62;30.44
62436;BME280;48480;50.252;18.848;2023-05-09T13:07:58;99217.70;;;18.72;30.08
62436;BME280;48480;50.252;18.848;2023-05-09T13:10:42;99213.88;;;18.75;30.08
62436;BME280;48480;50.252;18.848;2023-05-09T13:13:26;99208.60;;;18.75;29.98
62436;BME280;48480;50.252;18.848;2023-05-09T13:16:10;99207.98;;;18.74;29.41
62436;BME280;48480;50.252;18.848;2023-05-09T13:18:54;99205.87;;;18.71;28.97
62436;BME280;48480;50.252;18.848;2023-05-09T13:21:38;99200.42;;;18.67;29.32
62436;BME280;48480;50.252;18.848;2023-05-09T13:24:22;99201.02;;;18.70;29.57
62436;BME280;48480;50.252;18.848;2023-05-09T13:27:06;99201.82;;;18.57;29.62
62436;BME280;48480;50.252;18.848;2023-05-09T13:29:50;99200.98;;;18.49;30.29
62436;BME280;48480;50.252;18.848;2023-05-09T13:32:34;99202.98;;;18.51;30.43
62436;BME280;48480;50.252;18.848;2023-05-09T13:35:19;99188.89;;;18.52;30.23
62436;BME280;48480;50.252;18.848;2023-05-09T13:38:03;99182.31;;;18.53;30.42
62436;BME280;48480;50.252;18.848;2023-05-09T13:40:47;99180.70;;;18.54;30.36
62436;BME280;48480;50.252;18.848;2023-05-09T13:43:30;99176.14;;;18.58;30.35
62436;BME280;48480;50.252;18.848;2023-05-09T13:46:14;99177.74;;;18.63;30.16
62436;BME280;48480;50.252;18.848;2023-05-09T13:48:58;99178.80;;;18.62;30.18
62436;BME280;48480;50.252;18.848;2023-05-09T13:51:43;99169.41;;;18.62;30.34
62436;BME280;48480;50.252;18.848;2023-05-09T13:54:27;99171.50;;;18.65;30.56
62436;BME280;48480;50.252;18.848;2023-05-09T13:57:12;99172.55;;;18.66;30.67
62436;BME280;48480;50.252;18.848;2023-05-09T13:59:56;99169.74;;;18.73;30.72
62436;BME280;48480;50.252;18.848;2023-05-09T14:02:41;99160.44;;;18.79;30.23
62436;BME280;48480;50.252;18.848;2023-05-09T14:05:25;99157.31;;;18.76;30.03
62436;BME280;48480;50.252;18.848;2023-05-09T14:08:09;99152.09;;;18.62;30.21
62436;BME280;48480;50.252;18.848;2023-05-09T14:10:54;99150.20;;;18.57;30.21
62436;BME280;48480;50.252;18.848;2023-05-09T14:13:38;99146.42;;;18.56;30.41
62436;BME280;48480;50.252;18.848;2023-05-09T14:16:21;99146.10;;;18.51;30.33
62436;BME280;48480;50.252;18.848;2023-05-09T14:19:05;99138.59;;;18.33;30.39
62436;BME280;48480;50.252;18.848;2023-05-09T14:21:49;99134.54;;;18.23;30.98
62436;BME280;48480;50.252;18.848;2023-05-09T14:24:33;99137.77;;;18.09;30.69
62436;BME280;48480;50.252;18.848;2023-05-09T14:27:18;99135.23;;;17.95;30.80
62436;BME280;48480;50.252;18.848;2023-05-09T14:30:03;99132.18;;;17.77;30.85
62436;BME280;48480;50.252;18.848;2023-05-09T14:32:47;99131.80;;;17.69;31.18